Time;durP1;ratioP1;P1;durP2;ratioP2;P2;SDS_P1;SDS_P2;PMS_P1;PMS_P2;Temp;Humidity;BMP_temperature;BMP_pressure;BME280_temperature;BME280_humidity;BME280_pressure;Samples;Min_cycle;Max_cycle;Signal;HPM_P1;HPM_P2
2023/08/26 00:01:37;;;;;;;35.85;32.13;;;25.90;99.90;;;;;;6272558;22;19984;-94
2023/08/26 00:04:04;;;;;;;33.70;30.27;;;25.90;99.90;;;;;;6309543;22;20008;-93
2023/08/26 00:06:31;;;;;;;34.75;31.20;;;25.90;99.90;;;;;;6263610;22;20007;-93
2023/08/26 00:08:58;;;;;;;34.42;30.83;;;25.80;99.90;;;;;;6311744;22;20018;-93
2023/08/26 00:11:24;;;;;;;35.05;31.40;;;25.80;99.90;;;;;;6260887;22;20006;-93
2023/08/26 00:13:51;;;;;;;34.97;31.40;;;25.80;99.90;;;;;;6312933;22;20030;-93
2023/08/26 00:16:18;;;;;;;35.55;32.10;;;25.90;99.90;;;;;;6260845;22;20004;-94
2023/08/26 00:18:46;;;;;;;33.22;29.92;;;25.80;99.90;;;;;;6312829;22;20007;-93
2023/08/26 00:21:14;;;;;;;33.33;30.02;;;25.60;99.90;;;;;;6287034;22;20380;-94
2023/08/26 00:23:41;;;;;;;36.53;31.08;;;25.40;99.90;;;;;;6261035;22;20068;-93
2023/08/26 00:26:11;;;;;;;34.95;30.98;;;25.30;99.90;;;;;;6286755;22;20000;-94
2023/08/26 00:28:37;;;;;;;33.90;30.33;;;25.30;99.90;;;;;;6285398;22;20468;-93
2023/08/26 00:31:04;;;;;;;39.97;31.67;;;25.20;99.90;;;;;;6260005;22;20003;-94
2023/08/26 00:33:30;;;;;;;37.20;30.85;;;25.10;99.90;;;;;;6286959;22;20011;-94
2023/08/26 00:35:57;;;;;;;35.50;29.52;;;25.10;99.90;;;;;;6285776;22;20341;-93
2023/08/26 00:38:24;;;;;;;38.33;29.80;;;25.10;99.90;;;;;;6286010;22;20011;-93
2023/08/26 00:40:51;;;;;;;33.22;29.65;;;25.10;99.90;;;;;;6285436;22;20025;-93
2023/08/26 00:43:17;;;;;;;36.88;29.52;;;25.10;99.90;;;;;;6285192;22;20098;-94
2023/08/26 00:45:44;;;;;;;36.25;30.67;;;25.10;99.90;;;;;;6258290;22;20027;-93
2023/08/26 00:48:12;;;;;;;34.20;29.80;;;25.20;99.90;;;;;;6260180;22;20015;-93
2023/08/26 00:50:41;;;;;;;33.95;29.33;;;25.20;99.90;;;;;;6260851;22;20000;-93
2023/08/26 00:53:12;;;;;;;33.00;29.33;;;25.00;99.90;;;;;;6261448;22;20007;-93
2023/08/26 00:55:41;;;;;;;34.05;30.58;;;24.90;99.90;;;;;;6261781;22;20003;-94
2023/08/26 00:58:08;;;;;;;36.08;29.67;;;24.90;99.90;;;;;;6264945;22;20007;-93
2023/08/26 01:00:36;;;;;;;39.92;30.13;;;24.70;99.90;;;;;;6261996;22;20003;-93
2023/08/26 01:03:07;;;;;;;33.90;30.27;;;24.60;99.90;;;;;;6261553;22;20011;-93
2023/08/26 01:05:34;;;;;;;34.78;29.95;;;24.60;99.90;;;;;;6262014;22;20018;-93
2023/08/26 01:08:03;;;;;;;39.13;30.10;;;24.60;99.90;;;;;;6262278;22;20003;-93
2023/08/26 01:10:37;;;;;;;34.85;29.73;;;24.50;99.90;;;;;;6287075;22;20007;-92
2023/08/26 01:13:11;;;;;;;35.05;28.98;;;24.40;99.90;;;;;;6313898;22;20015;-93
2023/08/26 01:15:41;;;;;;;;;;;24.40;99.90;;;;;;6262505;22;20003;-93
2023/08/26 01:18:10;;;;;;;34.83;27.95;;;24.40;99.90;;;;;;6271079;22;19903;-92
2023/08/26 01:20:43;;;;;;;32.30;28.75;;;24.30;99.90;;;;;;6262499;22;20032;-93
2023/08/26 01:23:43;;;;;;;35.65;30.23;;;24.30;99.90;;;;;;6262364;22;20022;-93
2023/08/26 01:26:10;;;;;;;33.88;29.00;;;24.30;99.90;;;;;;6202602;22;20449;-93
2023/08/26 01:28:37;;;;;;;35.10;29.30;;;24.30;99.90;;;;;;6285592;22;20030;-92
2023/08/26 01:31:11;;;;;;;34.40;29.30;;;24.40;99.90;;;;;;6287925;22;20099;-93
2023/08/26 01:34:12;;;;;;;38.50;30.17;;;24.40;99.90;;;;;;6261738;22;20010;-93
2023/08/26 01:36:44;;;;;;;34.90;29.70;;;24.40;99.90;;;;;;6279746;22;20007;-93
2023/08/26 01:39:15;;;;;;;34.97;28.02;;;24.50;99.90;;;;;;6261772;22;20007;-94
2023/08/26 01:41:50;;;;;;;37.65;29.75;;;24.40;99.90;;;;;;6261581;22;20007;-94
2023/08/26 01:44:21;;;;;;;40.42;30.30;;;24.30;99.90;;;;;;6286327;22;20019;-93
2023/08/26 01:46:48;;;;;;;39.17;30.55;;;24.20;99.90;;;;;;6265173;22;20424;-94
2023/08/26 01:49:15;;;;;;;35.30;28.73;;;24.20;99.90;;;;;;6267691;22;20317;-94
2023/08/26 01:51:42;;;;;;;36.95;29.05;;;24.20;99.90;;;;;;6318689;22;20003;-95
2023/08/26 01:54:08;;;;;;;37.30;30.63;;;24.20;99.90;;;;;;6266065;22;20010;-95
2023/08/26 01:56:36;;;;;;;38.15;29.50;;;24.20;99.90;;;;;;6265874;22;20007;-95
2023/08/26 01:59:03;;;;;;;37.17;30.05;;;24.20;99.90;;;;;;6264702;22;20033;-94
2023/08/26 02:01:30;;;;;;;40.20;30.40;;;24.30;99.90;;;;;;6290914;22;20003;-95
2023/08/26 02:03:57;;;;;;;41.03;30.80;;;24.30;99.90;;;;;;6291104;22;20103;-94
2023/08/26 02:06:24;;;;;;;43.03;31.58;;;24.40;99.90;;;;;;6317004;22;20011;-95
2023/08/26 02:08:53;;;;;;;40.25;31.00;;;24.40;99.90;;;;;;6267284;22;20026;-95
2023/08/26 02:11:21;;;;;;;37.90;30.27;;;24.40;99.90;;;;;;6267714;22;20020;-94
2023/08/26 02:13:47;;;;;;;41.75;31.52;;;24.40;99.90;;;;;;6274632;22;20003;-95
2023/08/26 02:16:14;;;;;;;35.50;31.42;;;24.40;99.90;;;;;;6293522;22;20011;-94
2023/08/26 02:18:40;;;;;;;34.47;29.92;;;24.40;99.90;;;;;;6292097;22;20008;-95
2023/08/26 02:21:11;;;;;;;34.42;29.42;;;24.40;99.90;;;;;;6297006;22;20011;-94
2023/08/26 02:23:38;;;;;;;43.50;32.65;;;24.30;99.90;;;;;;6292751;22;20019;-95
2023/08/26 02:26:05;;;;;;;40.35;31.73;;;24.30;99.90;;;;;;6291905;22;19999;-94
2023/08/26 02:28:35;;;;;;;42.08;30.88;;;24.20;99.90;;;;;;6265092;22;20007;-95
2023/08/26 02:31:08;;;;;;;40.25;30.52;;;24.10;99.90;;;;;;6291547;22;20003;-94
2023/08/26 02:33:38;;;;;;;34.20;29.43;;;24.10;99.90;;;;;;6266260;22;20003;-94
2023/08/26 02:36:05;;;;;;;38.53;31.13;;;24.20;99.90;;;;;;6265352;22;20464;-94
2023/08/26 02:38:31;;;;;;;37.25;30.17;;;24.10;99.90;;;;;;6290258;22;20014;-94
2023/08/26 02:40:58;;;;;;;38.28;30.17;;;24.20;99.90;;;;;;6292542;22;20049;-95
2023/08/26 02:43:26;;;;;;;35.95;29.60;;;24.20;99.90;;;;;;6316120;22;20038;-94
2023/08/26 02:45:53;;;;;;;36.03;29.67;;;24.30;99.90;;;;;;6266790;22;20078;-95
2023/08/26 02:48:24;;;;;;;33.80;28.27;;;24.20;99.90;;;;;;6265624;22;20370;-94
2023/08/26 02:51:02;;;;;;;34.20;28.92;;;24.00;99.90;;;;;;6293124;22;20003;-95
2023/08/26 02:53:30;;;;;;;33.42;29.42;;;23.90;99.90;;;;;;6265459;22;20003;-94
2023/08/26 02:55:58;;;;;;;37.22;29.58;;;23.80;99.90;;;;;;6266689;22;20110;-94
2023/08/26 02:58:24;;;;;;;38.10;29.45;;;23.80;99.90;;;;;;6292287;22;20011;-94
2023/08/26 03:00:56;;;;;;;38.38;29.98;;;23.70;99.90;;;;;;6266465;22;20003;-94
2023/08/26 03:03:25;;;;;;;37.10;29.25;;;23.50;99.90;;;;;;6309369;22;20015;-94
2023/08/26 03:05:59;;;;;;;34.63;28.80;;;23.50;99.90;;;;;;6282100;22;20435;-94
2023/08/26 03:08:26;;;;;;;36.75;29.33;;;23.50;99.90;;;;;;6255893;22;20074;-94
2023/08/26 03:11:03;;;;;;;38.38;29.38;;;23.50;99.90;;;;;;6267626;22;20006;-95
2023/08/26 03:13:31;;;;;;;34.95;28.52;;;23.50;99.90;;;;;;6292733;22;20023;-95
2023/08/26 03:16:05;;;;;;;35.80;28.77;;;23.60;99.90;;;;;;6269546;22;19999;-94
2023/08/26 03:18:32;;;;;;;36.42;28.67;;;23.60;99.90;;;;;;6293651;22;20007;-95
2023/08/26 03:21:06;;;;;;;35.22;29.52;;;23.70;99.90;;;;;;6268869;22;20425;-94
2023/08/26 03:23:34;;;;;;;32.20;28.30;;;23.70;99.90;;;;;;6268099;22;20015;-95
2023/08/26 03:26:03;;;;;;;36.63;28.52;;;23.70;99.90;;;;;;6269122;22;20007;-95
2023/08/26 03:28:30;;;;;;;38.53;29.38;;;23.80;99.90;;;;;;6293191;22;20045;-95
2023/08/26 03:31:05;;;;;;;37.20;29.90;;;23.80;99.90;;;;;;6268267;22;20003;-95
2023/08/26 03:33:34;;;;;;;40.83;28.13;;;23.70;99.90;;;;;;6293950;22;20003;-94
2023/08/26 03:36:03;;;;;;;40.67;28.63;;;23.60;99.90;;;;;;6269086;22;19999;-95
2023/08/26 03:38:30;;;;;;;36.00;29.33;;;23.60;99.90;;;;;;6266531;22;20421;-92
2023/08/26 03:40:58;;;;;;;35.35;29.23;;;23.50;99.90;;;;;;6281492;22;19999;-93
2023/08/26 03:43:25;;;;;;;40.85;30.10;;;23.40;99.90;;;;;;6306797;22;20019;-92
2023/08/26 03:45:52;;;;;;;36.17;29.38;;;23.50;99.90;;;;;;6256225;22;20073;-93
2023/08/26 03:48:19;;;;;;;35.25;29.02;;;23.50;99.90;;;;;;6281415;22;20007;-92
2023/08/26 03:50:54;;;;;;;34.45;28.05;;;23.50;99.90;;;;;;6281842;22;20010;-93
2023/08/26 03:53:22;;;;;;;34.20;28.05;;;23.50;99.90;;;;;;6256654;22;20010;-93
2023/08/26 03:55:49;;;;;;;35.65;28.95;;;23.60;99.90;;;;;;6257910;22;20027;-93
2023/08/26 03:58:16;;;;;;;34.83;28.73;;;23.50;99.90;;;;;;6282341;22;20011;-93
2023/08/26 04:00:42;;;;;;;35.85;28.42;;;23.50;99.90;;;;;;6291052;22;20000;-93
2023/08/26 04:03:12;;;;;;;40.50;28.77;;;23.40;99.90;;;;;;6307972;22;20019;-92
2023/08/26 04:05:40;;;;;;;36.67;28.42;;;23.40;99.90;;;;;;6282689;22;20352;-92
2023/08/26 04:08:07;;;;;;;37.20;28.85;;;23.30;99.90;;;;;;6307298;22;20011;-92
2023/08/26 04:10:33;;;;;;;36.97;29.40;;;23.20;99.90;;;;;;6256155;22;20486;-93
2023/08/26 04:13:23;;;;;;;38.90;29.55;;;23.20;99.90;;;;;;6307046;22;20018;-92
2023/08/26 04:15:50;;;;;;;37.60;29.45;;;23.10;99.90;;;;;;6256977;22;20004;-92
2023/08/26 04:18:16;;;;;;;37.25;29.70;;;23.10;99.90;;;;;;6255680;22;20078;-93
2023/08/26 04:20:43;;;;;;;35.90;28.95;;;23.10;99.90;;;;;;6281290;22;20011;-93
2023/08/26 04:23:09;;;;;;;43.22;30.40;;;23.00;99.90;;;;;;6281249;22;20097;-91
2023/08/26 04:25:37;;;;;;;36.10;29.52;;;23.00;99.90;;;;;;6257481;22;20011;-93
2023/08/26 04:28:06;;;;;;;38.92;28.95;;;23.10;99.90;;;;;;6257756;22;20004;-93
2023/08/26 04:30:34;;;;;;;36.83;29.85;;;23.10;99.90;;;;;;6309064;22;20015;-92
2023/08/26 04:33:04;;;;;;;35.78;29.45;;;23.10;99.90;;;;;;6257979;22;20030;-92
2023/08/26 04:35:34;;;;;;;35.83;28.90;;;23.10;99.90;;;;;;6309133;22;20014;-93
2023/08/26 04:38:03;;;;;;;40.20;30.02;;;23.10;99.90;;;;;;6258519;22;20014;-91
2023/08/26 04:40:29;;;;;;;34.08;29.90;;;23.10;99.90;;;;;;6257739;22;20003;-92
2023/08/26 04:42:59;;;;;;;38.85;29.27;;;23.10;99.90;;;;;;6308916;22;20022;-92
2023/08/26 04:45:26;;;;;;;38.40;30.08;;;23.20;99.90;;;;;;6252903;22;20022;-92
2023/08/26 04:47:52;;;;;;;36.08;30.00;;;23.20;99.90;;;;;;6257931;22;20011;-92
2023/08/26 04:50:19;;;;;;;39.95;30.77;;;23.40;99.90;;;;;;6284404;22;20013;-92
2023/08/26 04:52:45;;;;;;;38.95;30.10;;;23.50;99.90;;;;;;6282642;22;20498;-92
2023/08/26 04:55:12;;;;;;;45.03;32.67;;;23.60;99.90;;;;;;6283053;22;20090;-92
2023/08/26 04:57:39;;;;;;;41.03;31.75;;;23.70;99.90;;;;;;6282727;22;20141;-93
2023/08/26 05:00:10;;;;;;;44.70;31.60;;;23.70;99.90;;;;;;6283149;22;20007;-92
2023/08/26 05:02:38;;;;;;;39.10;31.30;;;24.00;99.90;;;;;;6283798;22;20449;-93
2023/08/26 05:05:05;;;;;;;35.20;31.27;;;24.30;99.90;;;;;;6257667;22;20029;-92
2023/08/26 05:07:32;;;;;;;35.78;32.05;;;24.90;99.90;;;;;;6283734;22;20018;-93
2023/08/26 05:09:59;;;;;;;39.30;33.83;;;25.50;99.90;;;;;;6283059;22;20425;-93
2023/08/26 05:12:26;;;;;;;37.67;33.88;;;26.10;99.90;;;;;;6257714;22;20011;-93
2023/08/26 05:14:52;;;;;;;38.78;34.90;;;26.80;99.90;;;;;;6283222;22;19999;-92
2023/08/26 05:17:19;;;;;;;37.80;34.38;;;27.80;99.90;;;;;;6284044;22;20437;-93
2023/08/26 05:19:45;;;;;;;39.85;36.22;;;28.40;99.90;;;;;;6282749;22;20390;-93
2023/08/26 05:22:12;;;;;;;43.17;38.95;;;29.20;99.90;;;;;;6258902;22;20007;-93
2023/08/26 05:24:39;;;;;;;41.97;38.03;;;29.70;99.90;;;;;;6284760;22;20015;-92
2023/08/26 05:27:06;;;;;;;41.08;37.50;;;29.80;99.90;;;;;;6286459;22;19999;-93
2023/08/26 05:29:35;;;;;;;40.78;37.15;;;30.10;99.90;;;;;;6283831;22;20004;-92
2023/08/26 05:32:02;;;;;;;41.88;38.30;;;30.30;99.90;;;;;;6258464;22;20008;-93
2023/08/26 05:34:29;;;;;;;41.58;37.92;;;30.80;99.90;;;;;;6282359;22;20003;-90
2023/08/26 05:36:55;;;;;;;42.17;38.58;;;31.00;99.90;;;;;;6283565;22;20007;-90
2023/08/26 05:39:47;;;;;;;44.47;40.45;;;31.00;99.90;;;;;;6286334;22;20053;-90
2023/08/26 05:42:46;;;;;;;42.30;38.60;;;31.30;99.90;;;;;;6347616;22;20029;-93
2023/08/26 05:45:12;;;;;;;41.88;38.20;;;31.40;99.90;;;;;;6321067;22;20013;-90
2023/08/26 05:47:39;;;;;;;41.47;37.45;;;31.40;99.90;;;;;;6321493;22;20139;-90
2023/08/26 05:50:06;;;;;;;42.90;39.20;;;31.90;99.90;;;;;;6321316;22;20012;-88
2023/08/26 05:52:35;;;;;;;42.78;38.72;;;32.10;99.90;;;;;;6321916;22;20420;-88
2023/08/26 05:55:01;;;;;;;39.67;36.47;;;32.60;99.90;;;;;;6322398;22;20287;-85
2023/08/26 05:57:28;;;;;;;42.10;38.53;;;31.80;99.90;;;;;;6321365;22;20010;-86
2023/08/26 05:59:54;;;;;;;41.75;38.15;;;32.50;99.90;;;;;;6330766;22;20000;-86
2023/08/26 06:02:21;;;;;;;44.35;39.90;;;32.50;99.90;;;;;;6338479;22;20297;-83
2023/08/26 06:04:48;;;;;;;42.08;38.58;;;32.90;99.90;;;;;;6344860;22;20006;-85
2023/08/26 06:07:14;;;;;;;42.70;39.20;;;32.90;99.90;;;;;;6371553;22;20082;-86
2023/08/26 06:09:40;;;;;;;44.25;40.13;;;32.80;99.90;;;;;;6371599;22;20006;-86
2023/08/26 06:12:08;;;;;;;42.72;39.22;;;33.50;99.90;;;;;;6343838;22;20009;-84
2023/08/26 06:14:37;;;;;;;43.00;39.22;;;33.60;99.90;;;;;;6344169;22;20030;-87
2023/08/26 06:17:04;;;;;;;42.03;38.22;;;33.30;99.90;;;;;;6317474;22;20524;-88
2023/08/26 06:19:30;;;;;;;41.55;37.97;;;33.50;99.90;;;;;;6317645;22;20010;-86
2023/08/26 06:21:57;;;;;;;42.15;38.55;;;33.70;99.90;;;;;;6317496;22;20008;-87
2023/08/26 06:24:23;;;;;;;42.35;38.83;;;34.00;99.90;;;;;;6317370;22;20006;-87
2023/08/26 06:26:51;;;;;;;43.20;39.70;;;33.90;99.90;;;;;;6343610;22;20068;-88
2023/08/26 06:29:33;;;;;;;43.42;39.80;;;33.60;99.90;;;;;;6317993;22;20339;-87
2023/08/26 06:32:03;;;;;;;43.55;39.55;;;34.10;99.90;;;;;;6317710;22;20392;-87
2023/08/26 06:34:33;;;;;;;43.80;40.10;;;34.20;99.90;;;;;;6317691;22;20010;-87
2023/08/26 06:37:00;;;;;;;43.10;39.47;;;34.50;99.90;;;;;;6317335;22;20013;-87
2023/08/26 06:39:28;;;;;;;42.67;39.25;;;34.90;99.90;;;;;;6317643;22;20006;-87
2023/08/26 06:41:54;;;;;;;45.03;41.15;;;34.20;99.90;;;;;;6308519;22;20010;-87
2023/08/26 06:44:21;;;;;;;44.65;40.83;;;34.80;99.90;;;;;;6338161;22;20018;-87
2023/08/26 06:46:49;;;;;;;44.40;40.85;;;34.70;99.90;;;;;;6338034;22;20068;-87
2023/08/26 06:49:16;;;;;;;43.42;40.03;;;35.00;99.90;;;;;;6338398;22;20010;-87
2023/08/26 06:51:45;;;;;;;43.58;39.60;;;35.10;99.90;;;;;;6312213;22;20041;-87
2023/08/26 06:54:21;;;;;;;43.55;40.08;;;35.00;99.90;;;;;;6312456;22;20009;-89
2023/08/26 06:56:55;;;;;;;44.15;40.63;;;34.60;99.90;;;;;;6312704;22;20089;-86
2023/08/26 06:59:24;;;;;;;43.90;40.50;;;34.60;99.90;;;;;;6313399;22;20056;-88
2023/08/26 07:01:51;;;;;;;45.33;41.25;;;35.10;99.90;;;;;;6311649;22;20064;-84
2023/08/26 07:04:18;;;;;;;44.40;40.95;;;35.40;99.90;;;;;;6338118;22;20078;-84
2023/08/26 07:06:46;;;;;;;44.78;41.38;;;35.50;99.90;;;;;;6339372;22;20007;-84
2023/08/26 07:09:12;;;;;;;44.50;41.08;;;35.60;99.90;;;;;;6337803;22;20036;-84
2023/08/26 07:11:41;;;;;;;44.17;40.45;;;35.40;99.90;;;;;;6340963;22;20003;-94
2023/08/26 07:14:07;;;;;;;45.25;41.55;;;35.30;99.90;;;;;;6314377;22;20009;-80
2023/08/26 07:16:34;;;;;;;43.80;40.55;;;34.80;99.90;;;;;;6340060;22;20009;-80
2023/08/26 07:19:00;;;;;;;43.65;40.40;;;35.60;99.90;;;;;;6341111;22;20072;-79
2023/08/26 07:21:28;;;;;;;46.28;42.55;;;35.70;99.90;;;;;;6342248;22;20003;-80
2023/08/26 07:23:58;;;;;;;44.92;41.58;;;35.90;99.90;;;;;;6340179;22;20056;-88
2023/08/26 07:40:52;;;;;;;45.67;42.17;;;36.60;99.90;;;;;;6312235;22;20459;-94
2023/08/26 07:46:18;;;;;;;;;;;;;;;;;;;;;
2023/08/26 07:49:11;;;;;;;44.63;41.33;;;36.50;99.90;;;;;;6360157;22;20026;-93
2023/08/26 07:59:37;;;;;;;45.00;41.45;;;35.20;99.90;;;;;;6305014;22;20029;-91
2023/08/26 08:02:03;;;;;;;44.47;41.08;;;35.30;99.90;;;;;;6269344;22;19996;-90
2023/08/26 08:04:30;;;;;;;43.95;40.65;;;35.80;99.90;;;;;;6276918;22;20007;-92
2023/08/26 08:06:56;;;;;;;44.15;40.97;;;35.60;99.90;;;;;;6288253;22;20007;-90
2023/08/26 08:09:22;;;;;;;44.65;41.38;;;35.80;99.90;;;;;;6257317;22;20072;-90
2023/08/26 08:11:49;;;;;;;45.60;42.10;;;36.20;99.90;;;;;;6256240;22;20014;-92
2023/08/26 08:14:18;;;;;;;45.22;41.92;;;36.80;99.90;;;;;;6256334;22;20003;-91
2023/08/26 08:16:45;;;;;;;44.10;41.05;;;36.30;99.90;;;;;;6255395;22;20008;-90
2023/08/26 08:19:12;;;;;;;45.72;42.13;;;36.20;99.90;;;;;;6255774;22;19999;-90
2023/08/26 08:21:39;;;;;;;44.67;41.40;;;35.70;99.90;;;;;;6255342;22;20011;-88
2023/08/26 08:24:06;;;;;;;45.55;41.80;;;36.10;99.90;;;;;;6255401;22;20011;-89
2023/08/26 08:26:32;;;;;;;45.20;41.90;;;36.40;99.90;;;;;;6281349;22;20046;-90
2023/08/26 09:07:03;;;;;;;45.42;41.92;;;35.30;99.90;;;;;;6361185;22;20101;-94
2023/08/26 09:09:30;;;;;;;44.25;41.05;;;35.60;99.90;;;;;;6303282;22;20030;-92
2023/08/26 11:05:22;;;;;;;44.88;41.38;;;35.60;99.90;;;;;;6310543;22;20020;-94
2023/08/26 11:07:49;;;;;;;44.83;41.42;;;35.70;99.90;;;;;;6257515;22;20003;-93
2023/08/26 11:10:29;;;;;;;45.38;41.45;;;35.80;99.90;;;;;;6257132;22;20003;-93
2023/08/26 11:12:56;;;;;;;46.42;42.53;;;35.90;99.90;;;;;;6257435;22;20035;-92
2023/08/26 11:15:22;;;;;;;45.97;42.28;;;35.50;99.90;;;;;;6257839;22;20007;-92
2023/08/26 11:17:50;;;;;;;45.10;41.70;;;35.50;99.90;;;;;;6256941;22;20011;-92
2023/08/26 11:20:17;;;;;;;45.22;41.92;;;35.50;99.90;;;;;;6260598;22;20494;-93
2023/08/26 11:22:45;;;;;;;46.03;42.30;;;35.40;99.90;;;;;;6260088;22;20313;-92
2023/08/26 11:25:22;;;;;;;46.58;42.92;;;35.40;99.90;;;;;;6262420;22;20010;-94
2023/08/26 11:27:49;;;;;;;45.80;42.30;;;35.40;99.90;;;;;;6259702;22;20017;-93
2023/08/26 11:30:16;;;;;;;45.13;41.88;;;35.50;99.90;;;;;;6256381;22;20026;-92
2023/08/26 11:32:42;;;;;;;45.97;42.35;;;35.20;99.90;;;;;;6259236;22;20057;-91
2023/08/26 11:55:00;;;;;;;45.17;41.88;;;35.50;99.90;;;;;;6345491;22;21111;-92
2023/08/26 11:57:43;;;;;;;45.45;42.25;;;35.70;99.90;;;;;;6261777;22;20031;-93
2023/08/26 12:00:16;;;;;;;47.47;43.60;;;35.80;99.90;;;;;;6259055;23;20080;-94
2023/08/26 12:03:17;;;;;;;45.28;41.95;;;35.90;99.90;;;;;;6267322;22;20019;-93
2023/08/26 12:06:24;;;;;;;46.97;42.83;;;35.60;99.90;;;;;;6267300;22;20073;-91
2023/08/26 12:12:47;;;;;;;45.63;42.17;;;35.60;99.90;;;;;;6314150;22;20091;-93
2023/08/26 12:58:24;;;;;;;45.03;41.53;;;35.80;99.90;;;;;;6335425;22;20352;-94
2023/08/26 13:00:54;;;;;;;44.95;41.15;;;35.60;99.90;;;;;;6289833;22;20003;-94
2023/08/26 13:03:20;;;;;;;45.17;41.45;;;35.60;99.90;;;;;;6289632;22;20022;-94
2023/08/26 13:05:48;;;;;;;45.90;42.10;;;35.80;99.90;;;;;;6289146;22;20018;-93
2023/08/26 13:08:24;;;;;;;43.55;40.22;;;36.10;99.90;;;;;;6290138;22;20018;-94
2023/08/26 13:11:00;;;;;;;45.22;41.78;;;36.20;99.90;;;;;;6292669;22;20018;-93
2023/08/26 13:13:31;;;;;;;43.97;40.55;;;36.00;99.90;;;;;;6290799;22;20074;-93
2023/08/26 13:15:58;;;;;;;45.53;42.00;;;36.00;99.90;;;;;;6288781;22;20013;-93
2023/08/26 13:18:25;;;;;;;46.08;42.45;;;35.50;99.90;;;;;;6288351;22;20010;-92
2023/08/26 13:20:51;;;;;;;44.22;41.03;;;35.70;99.90;;;;;;6289697;22;20003;-93
2023/08/26 13:23:18;;;;;;;45.45;42.05;;;35.50;99.90;;;;;;6319596;22;20070;-94
2023/08/26 13:25:47;;;;;;;45.42;41.97;;;35.20;99.90;;;;;;6255992;22;20009;-93
2023/08/26 13:28:29;;;;;;;45.35;41.65;;;35.40;99.90;;;;;;6233041;22;20008;-94
2023/08/26 13:31:01;;;;;;;45.25;41.75;;;35.50;99.90;;;;;;6257394;22;20007;-94
2023/08/26 13:33:28;;;;;;;44.28;40.78;;;35.60;99.90;;;;;;6255800;22;20019;-94
2023/08/26 13:37:08;;;;;;;;;;;;;;;;;;;;;
2023/08/26 13:43:29;;;;;;;44.03;40.72;;;35.40;99.90;;;;;;6249269;22;20060;-94
2023/08/26 13:46:06;;;;;;;44.10;40.72;;;35.60;99.90;;;;;;6367381;22;20070;-93
2023/08/26 13:48:33;;;;;;;44.50;41.30;;;35.50;99.90;;;;;;6339450;22;20018;-93
2023/08/26 13:51:05;;;;;;;45.22;41.70;;;35.50;99.90;;;;;;6328346;22;19998;-93
2023/08/26 13:59:04;;;;;;;45.28;41.78;;;35.90;99.90;;;;;;6357342;22;20029;-65
2023/08/26 14:01:48;;;;;;;43.78;40.58;;;36.00;99.90;;;;;;6343309;22;20424;-92
